createdAt,value
2018-03-02T00:00:04.708Z,37.81
2018-03-02T00:01:11.768Z,37.80
2018-03-02T00:02:18.808Z,37.76
2018-03-02T00:03:25.633Z,37.81
2018-03-02T00:04:32.868Z,37.81
2018-03-02T00:05:39.757Z,37.85
2018-03-02T00:06:46.613Z,37.87
2018-03-02T00:07:53.629Z,37.90
2018-03-02T00:09:00.780Z,37.89
2018-03-02T00:10:07.798Z,37.88
2018-03-02T00:11:14.614Z,37.93
2018-03-02T00:12:21.428Z,37.92
2018-03-02T00:13:28.641Z,37.93
2018-03-02T00:14:35.216Z,37.91
2018-03-02T00:15:41.962Z,37.97
2018-03-02T00:16:48.763Z,37.92
2018-03-02T00:19:02.513Z,37.88
2018-03-02T00:20:09.221Z,37.88
2018-03-02T00:21:16.035Z,37.91
2018-03-02T00:22:22.903Z,37.94
2018-03-02T00:23:30.116Z,37.94
2018-03-02T00:24:36.936Z,37.94
2018-03-02T00:25:43.801Z,38.00
2018-03-02T00:26:50.535Z,38.01
2018-03-02T00:27:57.401Z,38.02
2018-03-02T00:29:04.296Z,38.00
2018-03-02T00:30:11.003Z,37.99
2018-03-02T00:31:17.831Z,38.05
2018-03-02T00:32:24.616Z,38.07
2018-03-02T00:33:31.480Z,38.05
2018-03-02T00:34:38.324Z,38.01
2018-03-02T00:35:45.004Z,38.07
2018-03-02T00:36:51.892Z,38.07
2018-03-02T00:37:58.680Z,38.08
2018-03-02T00:39:05.448Z,38.13
2018-03-02T00:40:12.363Z,38.15
2018-03-02T00:41:19.232Z,38.19
2018-03-02T00:42:26.091Z,38.19
2018-03-02T00:43:32.731Z,38.18
2018-03-02T00:44:39.601Z,38.20
2018-03-02T00:45:46.409Z,38.21
2018-03-02T00:46:53.200Z,38.20
2018-03-02T00:48:00.060Z,38.22
2018-03-02T00:49:06.884Z,38.25
2018-03-02T00:50:13.828Z,38.29
2018-03-02T00:51:20.652Z,38.27
2018-03-02T00:52:27.589Z,38.28
2018-03-02T00:53:34.292Z,38.31
2018-03-02T00:54:41.228Z,38.31
2018-03-02T00:55:47.955Z,38.35
2018-03-02T00:56:55.065Z,38.38
2018-03-02T00:58:01.892Z,38.37
2018-03-02T00:59:08.705Z,38.40
2018-03-02T01:00:15.476Z,38.43
2018-03-02T01:01:22.296Z,38.45
2018-03-02T01:02:29.043Z,38.45
2018-03-02T01:03:35.996Z,38.43
2018-03-02T01:04:42.902Z,38.46
2018-03-02T01:05:49.821Z,38.46
2018-03-02T01:06:56.615Z,38.46
2018-03-02T01:08:03.708Z,38.50
2018-03-02T01:09:10.394Z,38.53
2018-03-02T01:10:17.236Z,38.52
2018-03-02T01:11:24.028Z,38.54
2018-03-02T01:12:30.772Z,38.54
2018-03-02T01:13:37.650Z,38.59
2018-03-02T01:14:44.345Z,38.60
2018-03-02T01:15:51.105Z,38.60
2018-03-02T01:16:57.974Z,38.63
2018-03-02T01:18:04.747Z,38.60
2018-03-02T01:19:11.775Z,38.61
2018-03-02T01:20:18.541Z,38.62
2018-03-02T01:21:25.447Z,38.63
2018-03-02T01:22:32.285Z,38.64
2018-03-02T01:23:39.137Z,38.64
2018-03-02T01:24:45.956Z,38.67
2018-03-02T01:25:53.300Z,38.69
2018-03-02T01:26:59.638Z,38.72
2018-03-02T01:28:06.578Z,38.69
2018-03-02T01:29:13.601Z,38.72
2018-03-02T01:30:20.509Z,38.72
2018-03-02T01:31:27.299Z,38.71
2018-03-02T01:32:34.236Z,38.74
2018-03-02T01:33:41.023Z,38.75
2018-03-02T01:34:47.791Z,38.74
2018-03-02T01:35:54.660Z,38.77
2018-03-02T01:37:01.533Z,38.74
2018-03-02T01:38:08.545Z,38.79
2018-03-02T01:39:15.405Z,38.82
2018-03-02T01:40:22.472Z,38.83
2018-03-02T01:41:29.204Z,38.83
2018-03-02T01:42:36.040Z,38.86
2018-03-02T01:43:42.965Z,38.89
2018-03-02T01:44:49.810Z,38.89
2018-03-02T01:45:56.900Z,38.84
2018-03-02T01:47:03.580Z,38.83
2018-03-02T01:48:10.621Z,38.88
2018-03-02T01:49:17.293Z,38.86
2018-03-02T01:50:24.146Z,38.90
2018-03-02T01:51:31.152Z,38.86
2018-03-02T01:52:38.080Z,38.90
2018-03-02T01:53:45.192Z,38.90
2018-03-02T01:54:52.025Z,38.94
2018-03-02T01:55:58.954Z,38.90
2018-03-02T01:57:05.757Z,38.90
2018-03-02T01:58:12.577Z,38.94
2018-03-02T01:59:19.269Z,38.97
2018-03-02T02:00:26.019Z,38.95
2018-03-02T02:01:32.734Z,38.96
2018-03-02T02:02:39.426Z,38.99
2018-03-02T02:03:46.344Z,38.96
2018-03-02T02:04:53.118Z,39.01
2018-03-02T02:05:59.906Z,39.01
2018-03-02T02:07:06.752Z,39.03
2018-03-02T02:08:13.434Z,39.02
2018-03-02T02:09:20.320Z,39.00
2018-03-02T02:10:27.268Z,38.96
2018-03-02T02:11:34.117Z,39.00
2018-03-02T02:12:40.860Z,38.99
2018-03-02T02:13:47.603Z,38.98
2018-03-02T02:14:54.933Z,38.98
2018-03-02T02:16:01.715Z,39.03
2018-03-02T02:17:08.473Z,39.02
2018-03-02T02:18:15.417Z,39.04
2018-03-02T02:19:22.393Z,39.05
2018-03-02T02:20:29.280Z,39.07
2018-03-02T02:21:36.285Z,39.12
2018-03-02T02:22:43.023Z,39.12
2018-03-02T02:23:49.757Z,39.14
2018-03-02T02:24:56.522Z,39.17
2018-03-02T02:26:03.511Z,39.21
2018-03-02T02:27:10.340Z,39.19
2018-03-02T02:28:17.396Z,39.22
2018-03-02T02:29:24.138Z,39.21
2018-03-02T02:30:30.895Z,39.22
2018-03-02T02:31:37.675Z,39.24
2018-03-02T02:32:44.613Z,39.27
2018-03-02T02:33:51.588Z,39.25
2018-03-02T02:34:58.494Z,39.21
2018-03-02T02:36:05.273Z,39.20
2018-03-02T02:37:12.189Z,39.22
2018-03-02T02:38:19.030Z,39.24
2018-03-02T02:39:26.025Z,39.28
2018-03-02T02:40:32.933Z,39.28
2018-03-02T02:41:39.908Z,39.28
2018-03-02T02:42:46.637Z,39.28
2018-03-02T02:43:53.356Z,39.32
2018-03-02T02:45:00.246Z,39.31
2018-03-02T02:46:07.101Z,39.30
2018-03-02T02:47:14.004Z,39.32
2018-03-02T02:48:20.794Z,39.31
2018-03-02T02:49:27.615Z,39.33
2018-03-02T02:50:34.403Z,39.34
2018-03-02T02:51:41.268Z,39.34
2018-03-02T02:52:48.244Z,39.35
2018-03-02T02:53:54.993Z,39.33
2018-03-02T02:55:01.868Z,39.37
2018-03-02T02:56:08.709Z,39.39
2018-03-02T02:57:15.622Z,39.44
2018-03-02T02:58:22.576Z,39.50
2018-03-02T02:59:29.329Z,39.49
2018-03-02T03:00:36.252Z,39.49
2018-03-02T03:01:43.095Z,39.47
2018-03-02T03:02:49.807Z,39.51
2018-03-02T03:03:56.747Z,39.51
2018-03-02T03:05:03.568Z,39.50
2018-03-02T03:06:10.476Z,39.50
2018-03-02T03:07:17.385Z,39.54
2018-03-02T03:08:24.376Z,39.56
2018-03-02T03:09:31.280Z,39.58
2018-03-02T03:10:37.968Z,39.56
2018-03-02T03:11:45.398Z,39.60
2018-03-02T03:12:52.162Z,39.58
2018-03-02T03:13:58.984Z,39.56
2018-03-02T03:15:05.928Z,39.56
2018-03-02T03:16:12.952Z,39.58
2018-03-02T03:17:19.876Z,39.60
2018-03-02T03:18:26.881Z,39.62
2018-03-02T03:19:33.677Z,39.63
2018-03-02T03:20:40.515Z,39.63
2018-03-02T03:21:47.669Z,39.67
2018-03-02T03:22:53.957Z,39.65
2018-03-02T03:24:00.763Z,39.68
2018-03-02T03:25:07.801Z,39.70
2018-03-02T03:26:14.632Z,39.74
2018-03-02T03:27:21.437Z,39.77
2018-03-02T03:28:28.231Z,39.73
2018-03-02T03:29:35.123Z,39.76
2018-03-02T03:30:41.896Z,39.76
2018-03-02T03:31:49.073Z,39.78
2018-03-02T03:32:55.989Z,39.83
2018-03-02T03:34:02.825Z,39.90
2018-03-02T03:35:09.968Z,39.88
2018-03-02T03:36:16.392Z,39.88
2018-03-02T03:37:23.366Z,39.89
2018-03-02T03:38:30.275Z,39.93
2018-03-02T03:39:37.007Z,39.96
2018-03-02T03:40:43.766Z,39.96
2018-03-02T03:41:50.686Z,39.96
2018-03-02T03:42:57.563Z,39.97
2018-03-02T03:44:04.283Z,39.99
2018-03-02T03:45:11.152Z,39.96
2018-03-02T03:46:18.195Z,39.99
2018-03-02T03:47:24.945Z,40.03
2018-03-02T03:48:31.941Z,40.09
2018-03-02T03:49:38.670Z,40.07
2018-03-02T03:50:45.475Z,40.07
2018-03-02T03:51:52.393Z,40.09
2018-03-02T03:52:59.297Z,40.16
2018-03-02T03:54:06.405Z,40.20
2018-03-02T03:55:12.977Z,40.18
2018-03-02T03:56:19.763Z,40.23
2018-03-02T03:57:26.523Z,40.19
2018-03-02T03:58:33.232Z,40.21
2018-03-02T03:59:39.972Z,40.24
2018-03-02T04:00:46.821Z,40.23
2018-03-02T04:01:53.988Z,40.24
2018-03-02T04:03:00.849Z,40.27
2018-03-02T04:04:07.659Z,40.30
2018-03-02T04:05:14.484Z,40.33
2018-03-02T04:06:21.246Z,40.37
2018-03-02T04:07:27.998Z,40.39
2018-03-02T04:08:34.720Z,40.37
2018-03-02T04:09:41.506Z,40.40
2018-03-02T04:10:48.288Z,40.43
2018-03-02T04:11:55.142Z,40.43
2018-03-02T04:13:01.904Z,40.46
2018-03-02T04:14:08.808Z,40.47
2018-03-02T04:15:15.767Z,40.47
2018-03-02T04:16:22.768Z,40.51
2018-03-02T04:17:29.611Z,40.48
2018-03-02T04:18:36.282Z,40.52
2018-03-02T04:19:43.610Z,40.50
2018-03-02T04:20:50.407Z,40.54
2018-03-02T04:21:57.287Z,40.58
2018-03-02T04:23:04.059Z,40.61
2018-03-02T04:24:10.829Z,40.63
2018-03-02T04:25:17.900Z,40.64
2018-03-02T04:26:24.665Z,40.63
2018-03-02T04:27:31.501Z,40.61
2018-03-02T04:28:38.319Z,40.67
2018-03-02T04:29:45.047Z,40.67
2018-03-02T04:30:51.835Z,40.68
2018-03-02T04:31:58.659Z,40.71
2018-03-02T04:33:05.479Z,40.76
2018-03-02T04:34:12.209Z,40.78
2018-03-02T04:35:19.103Z,40.80
2018-03-02T04:36:13.499Z,40.77
2018-03-02T04:37:20.544Z,40.79
2018-03-02T04:38:27.368Z,40.85
2018-03-02T04:39:34.527Z,40.88
2018-03-02T04:40:41.259Z,40.91
2018-03-02T04:41:48.009Z,40.93
2018-03-02T04:42:54.760Z,40.97
2018-03-02T04:44:01.781Z,40.96
2018-03-02T04:45:08.700Z,41.00
2018-03-02T04:46:15.768Z,41.01
2018-03-02T04:47:22.341Z,41.02
2018-03-02T04:48:29.197Z,41.05
2018-03-02T04:49:36.179Z,41.07
2018-03-02T04:50:43.300Z,41.08
2018-03-02T04:51:50.380Z,41.12
2018-03-02T04:52:57.391Z,41.15
2018-03-02T04:54:03.786Z,41.14
2018-03-02T04:55:10.938Z,41.13
2018-03-02T04:56:17.777Z,41.12
2018-03-02T04:57:24.604Z,41.15
2018-03-02T04:58:31.418Z,41.18
2018-03-02T04:59:38.198Z,41.18
2018-03-02T05:00:44.921Z,41.19
2018-03-02T05:01:51.673Z,41.23
2018-03-02T05:02:58.488Z,41.23
2018-03-02T05:04:05.240Z,41.21
2018-03-02T05:05:12.140Z,41.28
2018-03-02T05:06:19.116Z,41.27
2018-03-02T05:07:26.195Z,41.29
2018-03-02T05:08:33.177Z,41.33
2018-03-02T05:09:39.956Z,41.36
2018-03-02T05:10:46.837Z,41.40
2018-03-02T05:11:53.625Z,41.49
2018-03-02T05:13:00.354Z,41.60
2018-03-02T05:14:07.142Z,41.59
2018-03-02T05:15:13.895Z,41.65
2018-03-02T05:16:20.807Z,41.72
2018-03-02T05:17:27.662Z,41.81
2018-03-02T05:18:34.600Z,41.90
2018-03-02T05:19:41.355Z,41.96
2018-03-02T05:20:48.193Z,41.96
2018-03-02T05:21:54.922Z,41.97
2018-03-02T05:23:01.700Z,42.06
2018-03-02T05:24:08.412Z,42.09
2018-03-02T05:25:15.378Z,42.12
2018-03-02T05:26:22.226Z,42.16
2018-03-02T05:27:29.147Z,42.14
2018-03-02T05:28:36.035Z,42.23
2018-03-02T05:29:42.911Z,42.29
2018-03-02T05:30:49.677Z,42.28
2018-03-02T05:31:56.654Z,42.26
2018-03-02T05:33:03.360Z,42.33
2018-03-02T05:34:10.246Z,42.37
2018-03-02T05:35:16.972Z,42.36
2018-03-02T05:36:23.731Z,42.41
2018-03-02T05:37:30.458Z,42.40
2018-03-02T05:38:37.147Z,42.45
2018-03-02T05:39:43.836Z,42.44
2018-03-02T05:40:50.655Z,42.50
2018-03-02T05:41:57.505Z,42.59
2018-03-02T05:43:04.276Z,42.61
2018-03-02T05:44:11.235Z,42.67
2018-03-02T05:45:18.213Z,42.69
2018-03-02T05:46:24.998Z,42.69
2018-03-02T05:47:31.767Z,42.76
2018-03-02T05:48:38.497Z,42.76
2018-03-02T05:49:45.276Z,42.75
2018-03-02T05:50:52.101Z,42.73
2018-03-02T05:51:58.899Z,42.75
2018-03-02T05:53:05.768Z,42.76
2018-03-02T05:54:12.570Z,42.80
2018-03-02T05:55:19.363Z,42.79
2018-03-02T05:56:26.386Z,42.77
2018-03-02T05:57:33.109Z,42.77
2018-03-02T05:58:40.037Z,42.86
2018-03-02T05:59:46.923Z,42.88
2018-03-02T06:00:53.747Z,42.90
2018-03-02T06:02:00.660Z,42.89
2018-03-02T06:03:07.681Z,42.90
2018-03-02T06:04:14.451Z,42.94
2018-03-02T06:05:21.329Z,42.92
2018-03-02T06:06:28.155Z,42.94
2018-03-02T06:07:34.879Z,42.97
2018-03-02T06:08:42.165Z,42.96
2018-03-02T06:09:48.868Z,42.97
2018-03-02T06:10:55.675Z,42.98
2018-03-02T06:12:02.361Z,42.97
2018-03-02T06:13:09.383Z,43.02
2018-03-02T06:14:16.620Z,43.02
2018-03-02T06:15:22.989Z,43.07
2018-03-02T06:16:30.106Z,43.05
2018-03-02T06:17:36.803Z,43.10
2018-03-02T06:18:43.835Z,43.13
2018-03-02T06:19:50.744Z,43.18
2018-03-02T06:20:57.680Z,43.21
2018-03-02T06:22:04.497Z,43.21
2018-03-02T06:23:11.300Z,43.27
2018-03-02T06:24:18.076Z,43.22
2018-03-02T06:25:25.063Z,43.27
2018-03-02T06:26:32.029Z,43.24
2018-03-02T06:27:38.995Z,43.26
2018-03-02T06:28:45.677Z,43.24
2018-03-02T06:29:52.717Z,43.28
2018-03-02T06:30:59.588Z,43.33
2018-03-02T06:32:06.414Z,43.34
2018-03-02T06:33:13.380Z,43.35
2018-03-02T06:34:20.159Z,43.34
2018-03-02T06:35:26.957Z,43.37
2018-03-02T06:36:33.699Z,43.39
2018-03-02T06:37:40.587Z,43.39
2018-03-02T06:38:47.264Z,43.41
2018-03-02T06:39:54.208Z,43.41
2018-03-02T06:41:01.166Z,43.40
2018-03-02T06:42:07.934Z,43.40
2018-03-02T06:43:14.722Z,43.39
2018-03-02T06:44:21.571Z,43.42
2018-03-02T06:45:28.537Z,43.40
2018-03-02T06:46:35.248Z,43.43
2018-03-02T06:47:41.967Z,43.45
2018-03-02T06:48:48.762Z,43.45
2018-03-02T06:49:55.605Z,43.43
2018-03-02T06:51:02.653Z,43.40
2018-03-02T06:52:09.555Z,43.38
2018-03-02T06:53:16.338Z,43.38
2018-03-02T06:54:23.220Z,43.35
2018-03-02T06:55:33.462Z,43.38
2018-03-02T06:56:36.740Z,43.39
2018-03-02T06:57:43.560Z,43.40
2018-03-02T06:58:50.518Z,43.42
2018-03-02T06:59:57.401Z,43.45
2018-03-02T07:01:04.390Z,43.50
2018-03-02T07:02:11.180Z,43.48
2018-03-02T07:03:17.898Z,43.49
2018-03-02T07:04:24.739Z,43.53
2018-03-02T07:05:31.679Z,43.58
2018-03-02T07:06:38.627Z,43.59
2018-03-02T07:07:45.440Z,43.63
2018-03-02T07:08:52.139Z,43.66
2018-03-02T07:09:58.934Z,43.67
2018-03-02T07:11:05.771Z,43.70
2018-03-02T07:12:12.589Z,43.71
2018-03-02T07:13:19.722Z,43.73
2018-03-02T07:14:26.806Z,43.80
2018-03-02T07:15:33.785Z,43.83
2018-03-02T07:16:40.552Z,43.83
2018-03-02T07:17:47.542Z,43.82
2018-03-02T07:18:54.332Z,43.83
2018-03-02T07:20:01.177Z,43.88
2018-03-02T07:21:07.977Z,43.91
2018-03-02T07:22:14.817Z,43.92
2018-03-02T07:23:21.543Z,43.96
2018-03-02T07:24:28.493Z,43.98
2018-03-02T07:25:35.323Z,43.99
2018-03-02T07:26:42.156Z,44.01
2018-03-02T07:27:48.942Z,44.03
2018-03-02T07:28:55.773Z,44.06
2018-03-02T07:30:02.701Z,44.08
2018-03-02T07:31:09.544Z,44.10
2018-03-02T07:32:16.446Z,44.08
2018-03-02T07:33:23.336Z,44.08
2018-03-02T07:34:30.127Z,44.07
2018-03-02T07:35:36.950Z,44.09
2018-03-02T07:36:43.840Z,44.09
2018-03-02T07:37:50.948Z,44.12
2018-03-02T07:38:57.788Z,44.12
2018-03-02T07:40:04.645Z,44.13
2018-03-02T07:41:11.462Z,44.15
2018-03-02T07:42:18.201Z,44.18
2018-03-02T07:43:25.061Z,44.20
2018-03-02T07:44:31.792Z,44.23
2018-03-02T07:45:38.641Z,44.29
2018-03-02T07:46:45.520Z,44.30
2018-03-02T07:47:52.632Z,44.33
2018-03-02T07:48:59.613Z,44.33
2018-03-02T07:50:06.426Z,44.35
2018-03-02T07:51:13.190Z,44.38
2018-03-02T07:52:19.964Z,44.41
2018-03-02T07:53:26.932Z,44.40
2018-03-02T07:54:33.722Z,44.40
2018-03-02T07:55:40.887Z,44.36
2018-03-02T07:56:47.713Z,44.37
2018-03-02T07:57:54.427Z,44.41
2018-03-02T07:59:01.252Z,44.42
2018-03-02T08:00:08.121Z,44.46
2018-03-02T08:01:15.013Z,44.49
2018-03-02T08:02:22.069Z,44.51
2018-03-02T08:03:28.977Z,44.57
2018-03-02T08:04:35.976Z,44.57
2018-03-02T08:05:42.905Z,44.59
2018-03-02T08:06:49.972Z,44.65
2018-03-02T08:07:56.761Z,44.68
2018-03-02T08:09:03.561Z,44.68
2018-03-02T08:10:10.388Z,44.72
2018-03-02T08:11:17.529Z,44.72
2018-03-02T08:12:24.395Z,44.74
2018-03-02T08:13:31.493Z,44.70
2018-03-02T08:14:38.555Z,44.72
2018-03-02T08:15:45.012Z,44.73
2018-03-02T08:16:52.197Z,44.75
2018-03-02T08:17:58.915Z,44.79
2018-03-02T08:19:05.797Z,44.80
2018-03-02T08:20:12.656Z,44.80
2018-03-02T08:21:19.539Z,44.79
2018-03-02T08:22:26.444Z,44.79
2018-03-02T08:23:33.320Z,44.81
2018-03-02T08:24:40.312Z,44.78
2018-03-02T08:25:47.097Z,44.78
2018-03-02T08:26:53.857Z,44.79
2018-03-02T08:28:00.928Z,44.83
2018-03-02T08:29:07.859Z,44.95
2018-03-02T08:30:14.697Z,45.06
2018-03-02T08:31:21.367Z,45.09
2018-03-02T08:32:28.028Z,45.11
2018-03-02T08:33:34.964Z,45.29
2018-03-02T08:34:41.943Z,45.25
2018-03-02T08:35:48.796Z,45.26
2018-03-02T08:36:55.472Z,45.26
2018-03-02T08:38:02.239Z,45.28
2018-03-02T08:39:09.095Z,45.31
2018-03-02T08:40:15.993Z,45.33
2018-03-02T08:41:22.842Z,45.32
2018-03-02T08:42:29.775Z,45.40
2018-03-02T08:43:36.800Z,45.44
2018-03-02T08:44:43.830Z,45.53
2018-03-02T08:45:50.745Z,45.57
2018-03-02T08:46:57.463Z,45.54
2018-03-02T08:48:04.577Z,45.60
2018-03-02T08:49:11.463Z,45.73
2018-03-02T08:50:18.316Z,45.75
2018-03-02T08:51:25.192Z,45.97
2018-03-02T08:52:32.039Z,46.07
2018-03-02T08:53:38.779Z,46.16
2018-03-02T08:54:45.660Z,46.26
2018-03-02T08:55:52.409Z,46.44
2018-03-02T08:56:59.337Z,46.42
2018-03-02T08:58:06.504Z,46.45
2018-03-02T08:59:13.575Z,46.48
2018-03-02T09:00:20.374Z,46.82
2018-03-02T09:01:27.406Z,46.75
2018-03-02T09:02:34.252Z,46.80
2018-03-02T09:03:41.148Z,46.83
2018-03-02T09:04:48.004Z,47.03
2018-03-02T09:05:54.876Z,47.13
2018-03-02T09:07:01.677Z,47.23
2018-03-02T09:08:08.756Z,47.18
2018-03-02T09:09:15.613Z,47.32
2018-03-02T09:10:22.526Z,47.48
2018-03-02T09:11:29.460Z,47.52
2018-03-02T09:12:36.172Z,47.66
2018-03-02T09:13:43.256Z,47.75
2018-03-02T09:14:50.135Z,47.83
2018-03-02T09:15:56.957Z,48.05
2018-03-02T09:17:03.811Z,48.05
2018-03-02T09:18:10.801Z,48.21
2018-03-02T09:19:17.840Z,48.27
2018-03-02T09:20:24.756Z,48.34
2018-03-02T09:21:31.601Z,48.37
2018-03-02T09:22:38.335Z,48.33
2018-03-02T09:23:45.201Z,48.55
2018-03-02T09:24:51.861Z,48.75
2018-03-02T09:25:58.711Z,48.70
2018-03-02T09:27:05.599Z,48.78
2018-03-02T09:28:12.572Z,48.87
2018-03-02T09:29:19.367Z,48.83
2018-03-02T09:30:26.119Z,48.93
2018-03-02T09:31:32.917Z,49.07
2018-03-02T09:32:39.707Z,49.04
2018-03-02T09:33:46.526Z,49.22
2018-03-02T09:34:53.299Z,49.24
2018-03-02T09:36:00.113Z,49.35
2018-03-02T09:37:06.976Z,49.46
2018-03-02T09:38:13.692Z,49.38
2018-03-02T09:39:20.604Z,49.43
2018-03-02T09:40:27.418Z,49.35
2018-03-02T09:41:34.191Z,49.37
2018-03-02T09:42:41.163Z,49.33
2018-03-02T09:43:47.931Z,49.31
2018-03-02T09:44:54.761Z,49.43
2018-03-02T09:46:01.520Z,49.46
2018-03-02T09:47:08.322Z,49.53
2018-03-02T09:48:15.050Z,49.67
2018-03-02T09:49:21.953Z,49.92
2018-03-02T09:50:28.849Z,49.73
2018-03-02T09:51:35.688Z,49.65
2018-03-02T09:52:42.578Z,49.84
2018-03-02T09:53:49.376Z,49.70
2018-03-02T09:54:56.296Z,49.73
2018-03-02T09:56:03.157Z,49.85
2018-03-02T09:57:10.009Z,49.87
2018-03-02T09:58:16.761Z,49.80
2018-03-02T09:59:23.798Z,49.73
2018-03-02T10:00:30.666Z,49.69
2018-03-02T10:01:37.901Z,49.69
2018-03-02T10:02:44.748Z,49.64
2018-03-02T10:03:51.503Z,49.81
2018-03-02T10:04:58.197Z,49.90
2018-03-02T10:06:05.235Z,49.96
2018-03-02T10:07:12.016Z,49.98
2018-03-02T10:08:18.891Z,49.99
2018-03-02T10:09:25.808Z,49.95
2018-03-02T10:10:32.525Z,49.97
2018-03-02T10:11:39.430Z,50.01
2018-03-02T10:12:46.370Z,50.02
2018-03-02T10:13:53.125Z,50.08
2018-03-02T10:14:59.909Z,50.13
2018-03-02T10:16:07.020Z,50.17
2018-03-02T10:17:13.961Z,50.24
2018-03-02T10:18:20.768Z,50.12
2018-03-02T10:19:27.601Z,50.25
2018-03-02T10:20:34.316Z,50.25
2018-03-02T10:21:41.124Z,50.29
2018-03-02T10:22:47.835Z,50.13
2018-03-02T10:23:54.737Z,50.13
2018-03-02T10:25:01.404Z,50.17
2018-03-02T10:26:08.294Z,50.23
2018-03-02T10:27:15.120Z,50.24
2018-03-02T10:28:22.156Z,50.29
2018-03-02T10:29:28.884Z,50.32
2018-03-02T10:30:35.841Z,50.47
2018-03-02T10:31:42.817Z,50.50
2018-03-02T10:32:50.029Z,50.60
2018-03-02T10:33:56.452Z,50.68
2018-03-02T10:35:03.380Z,50.71
2018-03-02T10:36:10.692Z,50.81
2018-03-02T10:37:17.285Z,50.90
2018-03-02T10:38:23.754Z,50.96
2018-03-02T10:39:30.780Z,50.76
2018-03-02T10:40:37.695Z,50.69
2018-03-02T10:41:44.632Z,50.79
2018-03-02T10:42:51.601Z,50.79
2018-03-02T10:43:58.768Z,50.79
2018-03-02T10:45:05.657Z,50.89
2018-03-02T10:46:12.392Z,51.11
2018-03-02T10:47:19.152Z,51.10
2018-03-02T10:48:26.112Z,51.15
2018-03-02T10:49:32.888Z,51.19
2018-03-02T10:50:39.849Z,51.47
2018-03-02T10:51:46.874Z,51.60
2018-03-02T10:52:53.696Z,51.32
2018-03-02T10:54:00.914Z,51.29
2018-03-02T10:55:07.716Z,51.39
2018-03-02T10:56:14.455Z,51.49
2018-03-02T10:57:21.133Z,51.47
2018-03-02T10:58:28.087Z,51.53
2018-03-02T10:59:35.328Z,51.61
2018-03-02T11:00:41.727Z,51.72
2018-03-02T11:01:48.533Z,51.89
2018-03-02T11:02:55.323Z,51.98
2018-03-02T11:03:57.127Z,52.00
2018-03-02T11:05:04.205Z,51.95
2018-03-02T11:06:11.173Z,52.07
2018-03-02T11:07:18.032Z,52.13
2018-03-02T11:08:24.947Z,52.08
2018-03-02T11:09:31.714Z,52.07
2018-03-02T11:10:38.473Z,52.24
2018-03-02T11:11:45.217Z,52.30
2018-03-02T11:12:52.073Z,52.40
2018-03-02T11:13:58.793Z,52.45
2018-03-02T11:15:05.541Z,52.41
2018-03-02T11:16:12.300Z,52.30
2018-03-02T11:17:19.081Z,52.27
2018-03-02T11:18:25.824Z,52.31
2018-03-02T11:19:32.614Z,52.36
2018-03-02T11:20:39.401Z,52.41
2018-03-02T11:21:46.264Z,52.46
2018-03-02T11:22:53.212Z,52.63
2018-03-02T11:24:00.196Z,52.74
2018-03-02T11:25:07.075Z,52.82
2018-03-02T11:26:14.036Z,52.77
2018-03-02T11:27:21.025Z,52.75
2018-03-02T11:28:27.860Z,52.75
2018-03-02T11:29:35.214Z,52.63
2018-03-02T11:30:42.124Z,52.72
2018-03-02T11:31:49.215Z,52.77
2018-03-02T11:32:55.600Z,52.73
2018-03-02T11:34:02.365Z,52.78
2018-03-02T11:35:09.199Z,52.88
2018-03-02T11:36:16.281Z,52.89
2018-03-02T11:37:23.037Z,53.00
2018-03-02T11:38:29.816Z,53.10
2018-03-02T11:39:36.560Z,53.12
2018-03-02T11:40:43.419Z,53.09
2018-03-02T11:41:50.142Z,53.17
2018-03-02T11:42:56.879Z,53.28
2018-03-02T11:44:03.611Z,53.26
2018-03-02T11:45:10.341Z,53.29
2018-03-02T11:46:17.048Z,53.28
2018-03-02T11:47:23.857Z,53.43
2018-03-02T11:48:30.595Z,53.45
2018-03-02T11:49:37.332Z,53.44
2018-03-02T11:50:44.049Z,53.48
2018-03-02T11:51:50.801Z,53.48
2018-03-02T11:52:57.531Z,53.40
2018-03-02T11:54:04.301Z,53.45
2018-03-02T11:55:11.047Z,53.61
2018-03-02T11:56:17.769Z,53.60
2018-03-02T11:57:24.564Z,53.58
2018-03-02T11:58:31.335Z,53.66
2018-03-02T11:59:38.206Z,53.63
2018-03-02T12:00:44.945Z,53.69
2018-03-02T12:01:55.518Z,53.93
2018-03-02T12:02:58.742Z,54.12
2018-03-02T12:04:05.721Z,54.16
2018-03-02T12:05:12.832Z,54.30
2018-03-02T12:06:19.583Z,54.48
2018-03-02T12:07:26.326Z,54.42
2018-03-02T12:08:33.097Z,54.58
2018-03-02T12:09:39.941Z,54.72
2018-03-02T12:10:46.652Z,54.80
2018-03-02T12:11:53.401Z,54.77
2018-03-02T12:13:00.131Z,54.92
2018-03-02T12:14:06.874Z,55.15
2018-03-02T12:15:13.694Z,55.18
2018-03-02T12:16:20.429Z,55.21
2018-03-02T12:17:27.202Z,55.32
2018-03-02T12:18:33.925Z,55.43
2018-03-02T12:19:40.668Z,55.53
2018-03-02T12:20:47.468Z,55.76
2018-03-02T12:21:54.280Z,55.94
2018-03-02T12:23:01.132Z,56.02
2018-03-02T12:24:07.952Z,56.14
2018-03-02T12:25:14.834Z,56.34
2018-03-02T12:26:21.590Z,56.34
2018-03-02T12:27:28.472Z,56.22
2018-03-02T12:28:35.309Z,56.28
2018-03-02T12:29:42.048Z,56.46
2018-03-02T12:30:48.872Z,56.39
2018-03-02T12:31:55.551Z,56.42
2018-03-02T12:33:02.269Z,56.35
2018-03-02T12:34:08.983Z,56.49
2018-03-02T12:35:15.741Z,56.58
2018-03-02T12:36:22.448Z,56.71
2018-03-02T12:37:29.281Z,56.93
2018-03-02T12:38:36.081Z,57.00
2018-03-02T12:39:42.812Z,57.03
2018-03-02T12:40:49.868Z,57.03
2018-03-02T12:41:56.603Z,57.12
2018-03-02T12:43:03.327Z,57.15
2018-03-02T12:44:10.044Z,57.16
2018-03-02T12:45:16.751Z,57.25
2018-03-02T12:46:23.564Z,57.38
2018-03-02T12:47:30.248Z,57.39
2018-03-02T12:48:36.963Z,57.43
2018-03-02T12:49:43.787Z,57.56
2018-03-02T12:50:50.491Z,57.80
2018-03-02T12:51:57.228Z,57.90
2018-03-02T12:53:04.052Z,57.99
2018-03-02T12:54:10.780Z,58.06
2018-03-02T12:55:17.508Z,58.04
2018-03-02T12:56:24.215Z,58.08
2018-03-02T12:57:31.208Z,57.97
2018-03-02T12:58:37.939Z,58.00
2018-03-02T12:59:44.652Z,58.05
2018-03-02T13:00:51.426Z,58.17
2018-03-02T13:01:58.228Z,58.22
2018-03-02T13:03:05.121Z,58.22
2018-03-02T13:04:12.271Z,58.33
2018-03-02T13:05:19.187Z,58.46
2018-03-02T13:06:25.892Z,58.56
2018-03-02T13:07:32.620Z,58.61
2018-03-02T13:08:39.395Z,58.67
2018-03-02T13:09:46.112Z,58.79
2018-03-02T13:10:52.836Z,58.89
2018-03-02T13:11:59.787Z,58.96
2018-03-02T13:13:06.563Z,58.94
2018-03-02T13:14:13.315Z,59.09
2018-03-02T13:15:20.092Z,59.11
2018-03-02T13:16:26.812Z,59.15
2018-03-02T13:17:33.558Z,59.14
2018-03-02T13:18:40.361Z,59.15
2018-03-02T13:19:47.209Z,59.25
2018-03-02T13:20:53.951Z,59.22
2018-03-02T13:22:00.681Z,59.20
2018-03-02T13:23:07.657Z,59.25
2018-03-02T13:24:14.436Z,59.32
2018-03-02T13:25:21.273Z,59.45
2018-03-02T13:26:28.412Z,59.59
2018-03-02T13:27:35.276Z,59.59
2018-03-02T13:28:44.585Z,59.66
2018-03-02T13:29:51.577Z,59.80
2018-03-02T13:30:58.367Z,59.85
2018-03-02T13:32:05.078Z,59.77
2018-03-02T13:33:12.076Z,59.77
2018-03-02T13:34:18.920Z,59.90
2018-03-02T13:35:25.680Z,59.96
2018-03-02T13:36:32.556Z,60.03
2018-03-02T13:37:39.365Z,60.04
2018-03-02T13:38:46.077Z,60.07
2018-03-02T13:39:52.817Z,60.05
2018-03-02T13:42:03.152Z,60.16
2018-03-02T13:43:10.152Z,60.14
2018-03-02T13:44:16.895Z,60.17
2018-03-02T13:45:23.744Z,60.27
2018-03-02T13:46:30.789Z,60.42
2018-03-02T13:47:37.604Z,60.43
2018-03-02T13:48:44.684Z,60.41
2018-03-02T13:50:55.892Z,60.50
2018-03-02T13:52:02.676Z,60.74
2018-03-02T13:53:09.847Z,60.77
2018-03-02T13:54:16.596Z,60.88
2018-03-02T13:55:23.297Z,60.90
2018-03-02T13:56:30.047Z,60.91
2018-03-02T13:57:36.975Z,61.00
2018-03-02T13:58:43.873Z,61.04
2018-03-02T13:59:51.281Z,61.09
2018-03-02T14:00:57.492Z,61.18
2018-03-02T14:02:04.292Z,61.19
2018-03-02T14:03:11.574Z,61.23
2018-03-02T14:04:18.008Z,61.29
2018-03-02T14:05:25.034Z,61.37
2018-03-02T14:06:32.000Z,61.41
2018-03-02T14:07:38.770Z,61.36
2018-03-02T14:08:45.596Z,61.37
2018-03-02T14:09:52.591Z,61.40
2018-03-02T14:10:59.393Z,61.47
2018-03-02T14:12:06.532Z,61.50
2018-03-02T14:13:13.248Z,61.44
2018-03-02T14:14:19.995Z,61.44
2018-03-02T14:15:26.788Z,61.48
2018-03-02T14:16:33.510Z,61.41
2018-03-02T14:17:40.292Z,61.52
2018-03-02T14:18:47.012Z,61.57
2018-03-02T14:19:53.844Z,61.66
2018-03-02T14:21:00.600Z,61.69
2018-03-02T14:22:07.402Z,61.75
2018-03-02T14:23:14.358Z,61.88